createdAt,value
2018-02-27T00:00:21.631Z,9.48
2018-02-27T00:02:49.202Z,12.95
2018-02-27T00:05:16.733Z,9.63
2018-02-27T00:07:44.285Z,15.93
2018-02-27T00:10:12.570Z,9.05
2018-02-27T00:12:40.123Z,14.05
2018-02-27T00:15:08.411Z,12.73
2018-02-27T00:17:35.959Z,10.50
2018-02-27T00:20:04.238Z,7.95
2018-02-27T00:22:32.541Z,8.95
2018-02-27T00:25:00.063Z,8.02
2018-02-27T00:27:28.371Z,9.20
2018-02-27T00:29:55.894Z,9.50
2018-02-27T00:32:23.443Z,5.65
2018-02-27T00:34:50.970Z,8.20
2018-02-27T00:37:18.501Z,7.10
2018-02-27T00:39:46.082Z,3.37
2018-02-27T00:42:13.621Z,5.65
2018-02-27T00:44:41.141Z,8.65
2018-02-27T00:47:08.681Z,3.05
2018-02-27T00:49:36.202Z,6.15
2018-02-27T00:52:03.752Z,6.60
2018-02-27T00:54:32.035Z,5.85
2018-02-27T00:56:59.566Z,7.90
2018-02-27T00:59:27.104Z,7.20
2018-02-27T01:01:54.842Z,4.78
2018-02-27T01:04:22.386Z,5.15
2018-02-27T01:06:49.900Z,4.30
2018-02-27T01:09:17.445Z,6.43
2018-02-27T01:11:44.962Z,6.22
2018-02-27T01:14:12.498Z,4.40
2018-02-27T01:16:40.787Z,4.70
2018-02-27T01:19:09.092Z,6.28
2018-02-27T01:21:36.623Z,3.65
2018-02-27T01:24:04.923Z,6.05
2018-02-27T01:26:32.450Z,4.55
2018-02-27T01:28:59.988Z,4.57
2018-02-27T01:31:27.509Z,5.22
2018-02-27T01:33:55.022Z,8.10
2018-02-27T01:36:22.558Z,6.87
2018-02-27T01:38:50.079Z,6.93
2018-02-27T01:41:17.617Z,4.12
2018-02-27T01:43:45.907Z,4.55
2018-02-27T01:46:13.451Z,4.30
2018-02-27T01:48:40.975Z,2.67
2018-02-27T01:51:14.542Z,3.85
2018-02-27T01:53:42.057Z,5.10
2018-02-27T01:56:10.398Z,4.25
2018-02-27T01:58:37.914Z,5.55
2018-02-27T02:01:06.218Z,4.60
2018-02-27T02:03:33.746Z,10.38
2018-02-27T02:06:01.349Z,3.65
2018-02-27T02:08:28.881Z,4.60
2018-02-27T02:10:57.167Z,8.02
2018-02-27T02:13:24.706Z,5.57
2018-02-27T02:15:52.986Z,3.65
2018-02-27T02:18:21.294Z,6.57
2018-02-27T02:20:48.862Z,4.93
2018-02-27T02:23:16.401Z,6.22
2018-02-27T02:25:43.922Z,3.90
2018-02-27T02:28:11.466Z,6.80
2018-02-27T02:30:38.994Z,8.05
2018-02-27T02:33:06.538Z,6.90
2018-02-27T02:35:34.827Z,4.37
2018-02-27T02:38:02.413Z,7.65
2018-02-27T02:40:29.923Z,7.50
2018-02-27T02:42:58.210Z,8.20
2018-02-27T02:45:26.511Z,7.62
2018-02-27T02:47:54.032Z,7.95
2018-02-27T02:50:21.571Z,7.47
2018-02-27T02:52:49.091Z,4.70
2018-02-27T02:55:16.632Z,4.05
2018-02-27T02:57:44.924Z,6.32
2018-02-27T03:00:12.466Z,9.43
2018-02-27T03:02:40.754Z,9.50
2018-02-27T03:05:08.298Z,9.35
2018-02-27T03:07:36.585Z,7.07
2018-02-27T03:10:04.899Z,9.63
2018-02-27T03:12:32.429Z,10.40
2018-02-27T03:14:59.974Z,8.30
2018-02-27T03:17:28.270Z,7.72
2018-02-27T03:19:55.817Z,6.37
2018-02-27T03:22:24.100Z,5.35
2018-02-27T03:24:51.617Z,6.30
2018-02-27T03:27:19.167Z,11.90
2018-02-27T03:29:46.693Z,8.48
2018-02-27T03:32:14.234Z,7.60
2018-02-27T03:34:42.528Z,8.95
2018-02-27T03:37:10.069Z,6.40
2018-02-27T03:39:38.362Z,11.60
2018-02-27T03:42:05.900Z,8.50
2018-02-27T03:44:34.190Z,7.78
2018-02-27T03:47:02.498Z,6.65
2018-02-27T03:49:30.022Z,8.30
2018-02-27T03:51:58.329Z,5.78
2018-02-27T03:54:25.853Z,9.52
2018-02-27T03:56:54.168Z,11.82
2018-02-27T03:59:21.706Z,12.43
2018-02-27T04:01:49.254Z,12.93
2018-02-27T04:04:17.547Z,9.43
2018-02-27T04:06:45.110Z,7.78
2018-02-27T04:09:12.635Z,8.30
2018-02-27T04:11:40.167Z,10.02
2018-02-27T04:14:07.711Z,8.18
2018-02-27T04:16:35.230Z,8.10
2018-02-27T04:19:03.538Z,7.53
2018-02-27T04:21:31.067Z,15.15
2018-02-27T04:23:59.370Z,7.60
2018-02-27T04:26:26.890Z,8.00
2018-02-27T04:31:28.117Z,5.62
2018-02-27T04:33:55.668Z,8.77
2018-02-27T04:36:23.191Z,8.75
2018-02-27T04:38:51.494Z,9.88
2018-02-27T04:41:19.021Z,10.07
2018-02-27T04:43:47.325Z,8.10
2018-02-27T04:46:14.846Z,9.18
2018-02-27T04:48:42.403Z,7.12
2018-02-27T04:51:10.027Z,10.20
2018-02-27T04:53:37.557Z,10.32
2018-02-27T04:56:05.862Z,16.23
2018-02-27T04:58:33.381Z,7.25
2018-02-27T05:01:00.917Z,9.02
2018-02-27T05:03:28.443Z,9.30
2018-02-27T05:05:55.978Z,6.32
2018-02-27T05:08:23.509Z,12.90
2018-02-27T05:10:51.128Z,9.00
2018-02-27T05:13:18.642Z,9.32
2018-02-27T05:15:46.953Z,11.60
2018-02-27T05:18:14.469Z,8.45
2018-02-27T05:20:42.009Z,7.57
2018-02-27T05:23:09.545Z,10.07
2018-02-27T05:25:37.094Z,10.40
2018-02-27T05:28:04.658Z,10.40
2018-02-27T05:30:32.198Z,9.25
2018-02-27T05:32:59.721Z,10.38
2018-02-27T05:35:27.257Z,8.93
2018-02-27T05:37:54.776Z,8.55
2018-02-27T05:40:22.313Z,8.80
2018-02-27T05:42:49.838Z,12.37
2018-02-27T05:45:17.378Z,14.13
2018-02-27T05:47:44.908Z,10.45
2018-02-27T05:50:13.325Z,10.18
2018-02-27T05:52:40.845Z,8.15
2018-02-27T05:55:09.130Z,18.55
2018-02-27T05:57:37.434Z,13.62
2018-02-27T06:00:04.950Z,11.45
2018-02-27T06:02:33.257Z,7.03
2018-02-27T06:05:00.779Z,6.97
2018-02-27T06:07:28.321Z,10.65
2018-02-27T06:09:55.846Z,16.50
2018-02-27T06:12:23.420Z,13.73
2018-02-27T06:14:50.941Z,11.07
2018-02-27T06:17:19.254Z,14.80
2018-02-27T06:19:46.774Z,13.50
2018-02-27T06:22:15.081Z,14.25
2018-02-27T06:24:42.649Z,23.10
2018-02-27T06:27:10.193Z,11.20
2018-02-27T06:29:37.709Z,11.88
2018-02-27T06:32:05.255Z,15.38
2018-02-27T06:34:32.781Z,11.48
2018-02-27T06:37:00.351Z,16.23
2018-02-27T06:39:27.869Z,21.98
2018-02-27T06:41:56.173Z,20.75
2018-02-27T06:44:23.746Z,17.55
2018-02-27T06:46:51.289Z,16.55
2018-02-27T06:49:18.814Z,18.67
2018-02-27T06:51:46.350Z,19.23
2018-02-27T06:54:13.865Z,18.70
2018-02-27T06:56:41.408Z,15.05
2018-02-27T06:59:09.689Z,24.15
2018-02-27T07:01:37.993Z,16.92
2018-02-27T07:04:05.509Z,17.05
2018-02-27T07:06:33.130Z,15.75
2018-02-27T07:09:00.646Z,16.48
2018-02-27T07:11:28.947Z,20.48
2018-02-27T07:13:56.494Z,14.73
2018-02-27T07:16:24.790Z,25.15
2018-02-27T07:18:52.333Z,20.17
2018-02-27T07:21:20.645Z,26.23
2018-02-27T07:23:48.180Z,14.18
2018-02-27T07:26:16.466Z,22.85
2018-02-27T07:28:44.001Z,16.05
2018-02-27T07:31:12.285Z,20.17
2018-02-27T07:33:40.590Z,20.75
2018-02-27T07:36:08.118Z,23.40
2018-02-27T07:38:36.424Z,27.02
2018-02-27T07:41:03.993Z,21.85
2018-02-27T07:43:31.533Z,22.30
2018-02-27T07:45:59.818Z,20.60
2018-02-27T07:48:27.387Z,26.95
2018-02-27T07:50:54.908Z,28.42
2018-02-27T07:53:22.466Z,24.42
2018-02-27T07:55:49.989Z,21.55
2018-02-27T07:58:17.508Z,22.35
2018-02-27T08:00:45.922Z,21.27
2018-02-27T08:03:13.446Z,27.10
2018-02-27T08:05:41.762Z,19.55
2018-02-27T08:08:09.285Z,16.02
2018-02-27T08:10:37.590Z,18.98
2018-02-27T08:13:05.113Z,22.30
2018-02-27T08:15:33.421Z,17.98
2018-02-27T08:18:00.941Z,25.67
2018-02-27T08:20:28.512Z,19.52
2018-02-27T08:22:56.026Z,25.10
2018-02-27T08:25:23.569Z,20.58
2018-02-27T08:27:51.141Z,27.62
2018-02-27T08:30:18.681Z,26.48
2018-02-27T08:32:46.202Z,17.65
2018-02-27T08:35:13.741Z,21.98
2018-02-27T08:37:41.269Z,22.95
2018-02-27T08:40:08.801Z,22.98
2018-02-27T08:42:37.101Z,28.67
2018-02-27T08:45:04.631Z,20.37
2018-02-27T08:47:32.959Z,24.67
2018-02-27T08:50:00.477Z,24.63
2018-02-27T08:52:28.782Z,22.25
2018-02-27T08:54:56.300Z,23.20
2018-02-27T08:57:23.846Z,21.02
2018-02-27T08:59:51.473Z,26.08
2018-02-27T09:02:19.012Z,22.25
2018-02-27T09:04:46.536Z,23.60
2018-02-27T09:07:14.846Z,23.80
2018-02-27T09:09:43.133Z,21.62
2018-02-27T09:12:10.657Z,20.98
2018-02-27T09:14:38.245Z,25.77
2018-02-27T09:17:05.741Z,19.02
2018-02-27T09:19:33.289Z,19.23
2018-02-27T09:22:00.813Z,28.33
2018-02-27T09:24:29.127Z,29.87
2018-02-27T09:26:56.651Z,25.95
2018-02-27T09:29:24.966Z,21.65
2018-02-27T09:31:52.486Z,25.02
2018-02-27T09:34:20.795Z,22.48
2018-02-27T09:36:48.314Z,21.10
2018-02-27T09:39:16.625Z,18.70
2018-02-27T09:41:44.142Z,22.87
2018-02-27T09:44:11.688Z,23.15
2018-02-27T09:46:39.206Z,23.52
2018-02-27T09:49:06.743Z,21.27
2018-02-27T09:51:35.021Z,22.27
2018-02-27T09:54:02.554Z,21.55
2018-02-27T09:56:30.098Z,22.40
2018-02-27T09:58:57.621Z,23.15
2018-02-27T10:01:25.161Z,22.15
2018-02-27T10:03:53.451Z,21.40
2018-02-27T10:06:20.986Z,17.90
2018-02-27T10:08:48.503Z,21.37
2018-02-27T10:11:16.039Z,15.70
2018-02-27T10:13:43.604Z,18.48
2018-02-27T10:16:11.143Z,16.87
2018-02-27T10:18:38.733Z,20.45
2018-02-27T10:21:06.270Z,16.55
2018-02-27T10:23:33.793Z,20.42
2018-02-27T10:26:01.324Z,21.70
2018-02-27T10:28:28.842Z,13.75
2018-02-27T10:30:56.377Z,12.48
2018-02-27T10:33:23.894Z,16.85
2018-02-27T10:35:51.428Z,13.02
2018-02-27T10:38:18.950Z,17.65
2018-02-27T10:40:46.569Z,15.02
2018-02-27T10:43:14.085Z,14.32
2018-02-27T10:45:42.396Z,9.57
2018-02-27T10:48:09.914Z,12.10
2018-02-27T10:50:38.223Z,14.65
2018-02-27T10:53:05.738Z,13.20
2018-02-27T10:55:33.270Z,14.02
2018-02-27T10:58:00.813Z,14.82
2018-02-27T11:00:33.973Z,15.45
2018-02-27T11:03:02.298Z,12.73
2018-02-27T11:05:29.830Z,12.45
2018-02-27T11:07:57.362Z,10.80
2018-02-27T11:10:25.670Z,15.48
2018-02-27T11:12:53.191Z,10.95
2018-02-27T11:15:20.717Z,9.57
2018-02-27T11:17:48.234Z,12.05
2018-02-27T11:20:16.534Z,12.52
2018-02-27T11:22:44.050Z,15.13
2018-02-27T11:25:11.583Z,11.93
2018-02-27T11:27:39.103Z,13.88
2018-02-27T11:30:06.641Z,14.15
2018-02-27T11:32:34.189Z,11.50
2018-02-27T11:35:01.706Z,12.45
2018-02-27T11:37:29.261Z,10.18
2018-02-27T11:39:56.777Z,11.93
2018-02-27T11:42:25.093Z,20.15
2018-02-27T11:44:52.610Z,16.17
2018-02-27T11:47:20.908Z,13.43
2018-02-27T11:49:48.413Z,9.35
2018-02-27T11:52:15.950Z,8.70
2018-02-27T11:54:43.511Z,16.95
2018-02-27T11:57:11.042Z,9.35
2018-02-27T11:59:39.326Z,13.10
2018-02-27T12:02:07.013Z,12.77
2018-02-27T12:04:34.537Z,14.95
2018-02-27T12:07:02.834Z,8.98
2018-02-27T12:09:30.341Z,9.70
2018-02-27T12:11:57.973Z,11.90
2018-02-27T12:14:25.494Z,14.13
2018-02-27T12:16:53.093Z,8.00
2018-02-27T12:19:20.619Z,11.10
2018-02-27T12:21:48.922Z,13.00
2018-02-27T12:24:16.491Z,15.18
2018-02-27T12:26:44.054Z,16.48
2018-02-27T12:29:11.569Z,13.15
2018-02-27T12:31:39.877Z,10.50
2018-02-27T12:34:07.398Z,11.88
2018-02-27T12:36:34.936Z,11.70
2018-02-27T12:39:02.475Z,9.63
2018-02-27T12:41:30.014Z,18.25
2018-02-27T12:43:57.534Z,11.90
2018-02-27T12:46:25.151Z,9.63
2018-02-27T12:48:52.671Z,13.27
2018-02-27T12:51:20.982Z,10.98
2018-02-27T12:53:48.502Z,11.48
2018-02-27T12:56:16.109Z,14.98
2018-02-27T12:58:43.674Z,14.48
2018-02-27T13:01:11.210Z,8.70
2018-02-27T13:03:39.552Z,8.82
2018-02-27T13:06:07.046Z,12.82
2018-02-27T13:08:34.566Z,13.65
2018-02-27T13:11:02.106Z,17.17
2018-02-27T13:13:29.630Z,11.43
2018-02-27T13:15:57.169Z,11.73
2018-02-27T13:18:26.337Z,11.93
2018-02-27T13:20:53.878Z,13.88
2018-02-27T13:23:21.398Z,12.98
2018-02-27T13:25:49.705Z,16.45
2018-02-27T13:28:17.268Z,11.80
2018-02-27T13:30:44.843Z,16.98
2018-02-27T13:33:12.380Z,15.00
2018-02-27T13:35:39.894Z,11.18
2018-02-27T13:38:07.512Z,11.02
2018-02-27T13:40:35.031Z,15.25
2018-02-27T13:43:03.341Z,12.65
2018-02-27T13:45:30.858Z,14.25
2018-02-27T13:47:58.397Z,12.37
2018-02-27T13:50:25.905Z,9.85
2018-02-27T13:52:53.437Z,15.25
2018-02-27T13:55:20.963Z,10.43
2018-02-27T13:57:48.504Z,12.93
2018-02-27T14:00:16.022Z,11.73
2018-02-27T14:02:43.575Z,10.93
2018-02-27T14:05:11.860Z,8.93
2018-02-27T14:07:39.398Z,11.05
2018-02-27T14:10:06.915Z,15.27
2018-02-27T14:12:34.486Z,9.88
2018-02-27T14:15:02.008Z,13.10
2018-02-27T14:17:30.310Z,9.25
2018-02-27T14:19:57.830Z,8.20
2018-02-27T14:22:25.372Z,13.07
2018-02-27T14:24:52.899Z,10.27
2018-02-27T14:27:20.457Z,8.98
2018-02-27T14:29:47.975Z,7.05
2018-02-27T14:32:16.295Z,11.90
2018-02-27T14:34:43.813Z,8.13
2018-02-27T14:37:11.353Z,9.85
2018-02-27T14:39:38.874Z,12.95
2018-02-27T14:42:06.409Z,10.68
2018-02-27T14:44:34.691Z,8.43
2018-02-27T14:47:02.229Z,11.07
2018-02-27T14:49:29.746Z,10.77
2018-02-27T14:51:57.285Z,10.60
2018-02-27T14:54:24.810Z,10.32
2018-02-27T14:56:52.413Z,11.07
2018-02-27T14:59:19.932Z,15.13
2018-02-27T15:01:47.468Z,12.10
2018-02-27T15:04:15.008Z,10.20
2018-02-27T15:06:42.548Z,10.70
2018-02-27T15:09:10.064Z,11.48
2018-02-27T15:11:38.374Z,14.43
2018-02-27T15:14:06.653Z,7.35
2018-02-27T15:16:34.190Z,13.02
2018-02-27T15:19:01.802Z,6.68
2018-02-27T15:21:29.329Z,8.65
2018-02-27T15:23:56.849Z,6.75
2018-02-27T15:26:24.386Z,7.43
2018-02-27T15:28:51.907Z,10.07
2018-02-27T15:31:20.186Z,11.75
2018-02-27T15:33:48.536Z,7.80
2018-02-27T15:36:16.027Z,14.00
2018-02-27T15:38:43.565Z,12.32
2018-02-27T15:41:11.866Z,11.68
2018-02-27T15:43:39.400Z,7.75
2018-02-27T15:46:06.918Z,8.32
2018-02-27T15:48:34.453Z,10.75
2018-02-27T15:51:01.977Z,8.30
2018-02-27T15:53:29.514Z,9.18
2018-02-27T15:55:57.031Z,8.20
2018-02-27T15:58:25.399Z,8.90
2018-02-27T16:00:53.683Z,9.80
2018-02-27T16:03:21.218Z,12.37
2018-02-27T16:05:49.503Z,8.60
2018-02-27T16:08:17.818Z,8.45
2018-02-27T16:10:45.337Z,16.05
2018-02-27T16:13:13.637Z,11.25
2018-02-27T16:15:41.213Z,12.70
2018-02-27T16:18:08.749Z,7.22
2018-02-27T16:20:36.261Z,7.12
2018-02-27T16:23:03.797Z,5.10
2018-02-27T16:25:31.321Z,9.45
2018-02-27T16:27:59.628Z,8.75
2018-02-27T16:30:27.189Z,10.20
2018-02-27T16:32:54.749Z,12.25
2018-02-27T16:35:22.266Z,6.53
2018-02-27T16:37:50.571Z,7.68
2018-02-27T16:40:18.088Z,11.07
2018-02-27T16:42:45.629Z,10.80
2018-02-27T16:45:13.141Z,11.68
2018-02-27T16:47:40.684Z,11.20
2018-02-27T16:50:08.969Z,6.60
2018-02-27T16:52:37.272Z,10.55
2018-02-27T16:55:04.837Z,10.45
2018-02-27T16:57:32.381Z,7.78
2018-02-27T16:59:59.903Z,10.27
2018-02-27T17:02:27.445Z,6.65
2018-02-27T17:04:54.980Z,6.07
2018-02-27T17:07:22.493Z,6.62
2018-02-27T17:09:50.037Z,11.23
2018-02-27T17:12:17.635Z,9.80
2018-02-27T17:14:45.114Z,8.65
2018-02-27T17:17:12.631Z,4.50
2018-02-27T17:19:40.238Z,7.15
2018-02-27T17:22:07.794Z,7.90
2018-02-27T17:24:35.325Z,8.93
2018-02-27T17:27:03.610Z,18.77
2018-02-27T17:29:31.911Z,8.18
2018-02-27T17:31:59.438Z,9.13
2018-02-27T17:34:27.745Z,11.88
2018-02-27T17:36:55.261Z,8.23
2018-02-27T17:39:23.567Z,7.43
2018-02-27T17:41:51.150Z,8.70
2018-02-27T17:44:18.665Z,8.18
2018-02-27T17:46:47.022Z,11.40
2018-02-27T17:49:14.510Z,7.18
2018-02-27T17:51:42.809Z,9.73
2018-02-27T17:54:10.407Z,5.95
2018-02-27T17:56:38.046Z,14.15
2018-02-27T17:59:05.594Z,8.10
2018-02-27T18:01:33.394Z,14.32
2018-02-27T18:04:00.914Z,10.00
2018-02-27T18:06:28.446Z,9.52
2018-02-27T18:08:55.962Z,6.47
2018-02-27T18:11:25.485Z,7.25
2018-02-27T18:13:53.835Z,4.37
2018-02-27T18:16:21.372Z,11.77
2018-02-27T18:18:48.889Z,8.57
2018-02-27T18:21:16.425Z,15.30
2018-02-27T18:23:43.951Z,10.13
2018-02-27T18:26:14.112Z,6.57
2018-02-27T18:28:44.566Z,14.60
2018-02-27T18:31:14.628Z,12.27
2018-02-27T18:33:42.152Z,7.15
2018-02-27T18:36:09.678Z,15.55
2018-02-27T18:38:37.213Z,7.37
2018-02-27T18:41:04.730Z,8.63
2018-02-27T18:43:32.268Z,11.32
2018-02-27T18:45:59.789Z,8.23
2018-02-27T18:48:27.321Z,7.95
2018-02-27T18:50:54.838Z,9.60
2018-02-27T18:53:22.486Z,8.48
2018-02-27T18:55:50.000Z,11.15
2018-02-27T18:58:17.537Z,11.82
2018-02-27T19:00:45.057Z,13.15
2018-02-27T19:03:12.630Z,10.60
2018-02-27T19:05:40.150Z,11.52
2018-02-27T19:08:08.449Z,12.43
2018-02-27T19:10:35.967Z,12.10
2018-02-27T19:13:03.577Z,12.23
2018-02-27T19:15:31.149Z,11.35
2018-02-27T19:17:58.684Z,17.77
2018-02-27T19:20:26.213Z,12.65
2018-02-27T19:22:53.760Z,10.23
2018-02-27T19:25:21.273Z,15.25
2018-02-27T19:27:48.805Z,17.20
2018-02-27T19:30:17.114Z,9.80
2018-02-27T19:32:44.632Z,17.17
2018-02-27T19:35:12.174Z,15.18
2018-02-27T19:37:39.695Z,14.93
2018-02-27T19:40:07.274Z,14.30
2018-02-27T19:42:34.788Z,12.90
2018-02-27T19:45:02.407Z,10.63
2018-02-27T19:47:29.942Z,13.52
2018-02-27T19:49:57.477Z,9.48
2018-02-27T19:52:26.100Z,15.77
2018-02-27T19:54:53.781Z,13.77
2018-02-27T19:57:21.309Z,9.02
2018-02-27T19:59:48.846Z,12.55
2018-02-27T20:02:17.368Z,10.27
2018-02-27T20:04:45.132Z,12.30
2018-02-27T20:07:12.670Z,14.63
2018-02-27T20:09:40.210Z,16.60
2018-02-27T20:12:08.499Z,12.77
2018-02-27T20:14:36.910Z,17.50
2018-02-27T20:17:04.427Z,11.65
2018-02-27T20:19:31.991Z,15.98
2018-02-27T20:22:00.277Z,14.52
2018-02-27T20:24:28.587Z,15.48
2018-02-27T20:26:56.141Z,11.20
2018-02-27T20:29:23.682Z,9.52
2018-02-27T20:31:51.202Z,15.55
2018-02-27T20:34:18.737Z,10.50
2018-02-27T20:36:46.306Z,14.87
2018-02-27T20:39:19.512Z,11.55
2018-02-27T20:41:47.140Z,14.02
2018-02-27T20:44:14.677Z,9.38
2018-02-27T20:46:42.194Z,11.23
2018-02-27T20:49:09.730Z,17.62
2018-02-27T20:51:37.253Z,13.65
2018-02-27T20:54:05.554Z,11.43
2018-02-27T20:56:33.079Z,17.90
2018-02-27T20:59:01.390Z,11.77
2018-02-27T21:01:28.905Z,9.63
2018-02-27T21:03:56.441Z,16.67
2018-02-27T21:06:23.975Z,12.05
2018-02-27T21:08:51.532Z,13.20
2018-02-27T21:11:19.046Z,18.20
2018-02-27T21:13:47.378Z,13.48
2018-02-27T21:16:14.935Z,14.77
2018-02-27T21:18:42.458Z,17.60
2018-02-27T21:21:10.769Z,15.93
2018-02-27T21:23:38.334Z,14.90
2018-02-27T21:26:05.869Z,17.25
2018-02-27T21:28:33.453Z,20.58
2018-02-27T21:31:00.991Z,12.40
2018-02-27T21:33:28.513Z,20.20
2018-02-27T21:35:56.053Z,11.25
2018-02-27T21:38:23.594Z,27.92
2018-02-27T21:40:51.130Z,12.68
2018-02-27T21:43:18.649Z,12.15
2018-02-27T21:45:46.184Z,15.95
2018-02-27T21:48:13.701Z,16.98
2018-02-27T21:50:42.001Z,12.20
2018-02-27T21:53:09.518Z,15.43
2018-02-27T21:55:37.125Z,19.27
2018-02-27T21:58:05.402Z,8.95
2018-02-27T22:00:32.938Z,15.57
2018-02-27T22:03:01.226Z,13.23
2018-02-27T22:05:28.761Z,15.35
2018-02-27T22:07:57.046Z,14.98
2018-02-27T22:10:25.354Z,14.05
2018-02-27T22:12:52.870Z,20.52
2018-02-27T22:15:20.418Z,19.62
2018-02-27T22:17:47.937Z,20.35
2018-02-27T22:20:15.475Z,18.52
2018-02-27T22:22:43.000Z,15.02
2018-02-27T22:25:10.546Z,20.37
2018-02-27T22:27:38.076Z,17.73
2018-02-27T22:30:05.638Z,15.95
2018-02-27T22:32:33.158Z,27.30
2018-02-27T22:35:01.462Z,18.35
2018-02-27T22:37:28.981Z,13.80
2018-02-27T22:39:56.496Z,18.33
2018-02-27T22:42:24.035Z,15.23
2018-02-27T22:44:51.553Z,14.70
2018-02-27T22:47:19.090Z,19.87
2018-02-27T22:49:46.604Z,21.37
2018-02-27T22:52:14.909Z,30.55
2018-02-27T22:54:42.426Z,14.70
2018-02-27T22:57:10.729Z,15.95
2018-02-27T22:59:38.250Z,15.57
2018-02-27T23:02:05.785Z,18.65
2018-02-27T23:04:33.301Z,17.60
2018-02-27T23:07:01.599Z,12.35
2018-02-27T23:09:29.117Z,18.60
2018-02-27T23:11:56.662Z,15.00
2018-02-27T23:14:24.174Z,18.62
2018-02-27T23:16:51.712Z,15.27
2018-02-27T23:19:19.998Z,23.27
2018-02-27T23:21:47.537Z,15.95
2018-02-27T23:24:16.107Z,15.07
2018-02-27T23:26:44.747Z,15.43
2018-02-27T23:29:15.213Z,12.27
2018-02-27T23:31:44.221Z,14.60
2018-02-27T23:34:16.037Z,21.05
2018-02-27T23:36:43.592Z,14.87
2018-02-27T23:39:11.129Z,15.35
2018-02-27T23:41:39.414Z,16.17
2018-02-27T23:44:06.953Z,15.13
2018-02-27T23:46:35.269Z,13.13
2018-02-27T23:49:02.836Z,25.17
2018-02-27T23:51:30.357Z,16.17
2018-02-27T23:53:58.666Z,14.00
2018-02-27T23:56:26.281Z,20.55
2018-02-27T23:58:53.784Z,19.12
